createdAt,value
2019-01-20T00:01:27.686Z,7.05
2019-01-20T00:03:56.967Z,6.15
2019-01-20T00:06:26.246Z,5.75
2019-01-20T00:08:55.535Z,5.45
2019-01-20T00:11:24.818Z,5.80
2019-01-20T00:13:54.103Z,5.60
2019-01-20T00:16:23.379Z,6.30
2019-01-20T00:18:52.670Z,5.00
2019-01-20T00:21:21.947Z,5.75
2019-01-20T00:23:51.243Z,5.40
2019-01-20T00:26:20.522Z,6.12
2019-01-20T00:28:49.814Z,5.30
2019-01-20T00:31:19.095Z,5.05
2019-01-20T00:33:48.454Z,4.80
2019-01-20T00:36:17.735Z,4.30
2019-01-20T00:38:47.035Z,4.85
2019-01-20T00:41:16.318Z,4.67
2019-01-20T00:43:45.610Z,5.45
2019-01-20T00:46:14.911Z,4.78
2019-01-20T00:48:44.202Z,5.50
2019-01-20T00:51:13.487Z,4.87
2019-01-20T00:53:42.771Z,5.28
2019-01-20T00:56:12.295Z,5.30
2019-01-20T00:58:41.897Z,4.90
2019-01-20T01:01:11.182Z,4.92
2019-01-20T01:03:40.471Z,5.00
2019-01-20T01:06:09.762Z,5.15
2019-01-20T01:08:39.054Z,5.90
2019-01-20T01:11:08.611Z,4.95
2019-01-20T01:13:38.183Z,4.83
2019-01-20T01:16:07.459Z,5.37
2019-01-20T01:18:37.019Z,4.78
2019-01-20T01:21:06.319Z,5.15
2019-01-20T01:23:35.932Z,4.20
2019-01-20T01:26:05.298Z,6.00
2019-01-20T01:28:34.574Z,5.15
2019-01-20T01:31:03.939Z,4.80
2019-01-20T01:33:33.216Z,5.92
2019-01-20T01:36:02.580Z,5.33
2019-01-20T01:38:31.872Z,4.55
2019-01-20T01:41:01.163Z,5.58
2019-01-20T01:43:30.439Z,5.05
2019-01-20T01:45:59.730Z,6.05
2019-01-20T01:48:29.011Z,5.05
2019-01-20T01:50:58.298Z,5.50
2019-01-20T01:53:27.594Z,5.30
2019-01-20T01:55:57.147Z,5.00
2019-01-20T01:58:26.445Z,4.75
2019-01-20T02:00:55.723Z,5.20
2019-01-20T02:03:25.010Z,5.33
2019-01-20T02:05:54.296Z,5.53
2019-01-20T02:08:23.602Z,4.58
2019-01-20T02:10:52.880Z,5.05
2019-01-20T02:13:22.162Z,5.30
2019-01-20T02:15:51.450Z,4.50
2019-01-20T02:18:20.729Z,6.03
2019-01-20T02:20:50.018Z,5.20
2019-01-20T02:23:19.315Z,5.00
2019-01-20T02:25:48.595Z,6.20
2019-01-20T02:28:17.894Z,5.42
2019-01-20T02:30:47.166Z,5.60
2019-01-20T02:33:16.458Z,5.30
2019-01-20T02:35:45.734Z,5.87
2019-01-20T02:38:15.026Z,5.10
2019-01-20T02:40:44.311Z,5.12
2019-01-20T02:43:13.595Z,5.80
2019-01-20T02:45:43.154Z,5.20
2019-01-20T02:48:12.432Z,5.60
2019-01-20T02:50:41.741Z,5.00
2019-01-20T02:53:11.020Z,5.35
2019-01-20T02:55:40.571Z,4.97
2019-01-20T02:58:10.171Z,6.00
2019-01-20T03:00:39.446Z,5.95
2019-01-20T03:03:08.744Z,5.83
2019-01-20T03:05:38.030Z,5.87
2019-01-20T03:08:07.322Z,6.65
2019-01-20T03:10:36.604Z,5.95
2019-01-20T03:13:05.907Z,5.60
2019-01-20T03:15:35.195Z,6.28
2019-01-20T03:18:04.979Z,5.42
2019-01-20T03:20:34.339Z,6.08
2019-01-20T03:23:03.894Z,5.92
2019-01-20T03:25:33.211Z,5.80
2019-01-20T03:28:02.497Z,6.20
2019-01-20T03:30:31.837Z,6.15
2019-01-20T03:33:01.168Z,5.58
2019-01-20T03:35:30.455Z,5.92
2019-01-20T03:37:59.831Z,5.90
2019-01-20T03:40:29.516Z,5.60
2019-01-20T03:42:58.814Z,6.10
2019-01-20T03:45:28.424Z,5.85
2019-01-20T03:47:57.714Z,5.72
2019-01-20T03:50:27.010Z,6.17
2019-01-20T03:52:56.282Z,6.17
2019-01-20T03:55:25.585Z,6.33
2019-01-20T03:57:55.131Z,6.30
2019-01-20T04:00:24.767Z,6.70
2019-01-20T04:02:56.640Z,6.47
2019-01-20T04:05:25.939Z,6.03
2019-01-20T04:07:55.220Z,7.35
2019-01-20T04:10:24.807Z,6.60
2019-01-20T04:12:54.097Z,7.05
2019-01-20T04:15:23.563Z,7.80
2019-01-20T04:17:52.838Z,7.00
2019-01-20T04:20:22.202Z,6.37
2019-01-20T04:22:51.492Z,5.72
2019-01-20T04:25:21.327Z,6.30
2019-01-20T04:27:50.626Z,6.60
2019-01-20T04:30:20.675Z,6.85
2019-01-20T04:32:49.950Z,6.25
2019-01-20T04:35:19.230Z,6.70
2019-01-20T04:37:48.858Z,6.78
2019-01-20T04:40:22.166Z,5.85
2019-01-20T04:42:53.136Z,7.08
2019-01-20T04:45:22.427Z,6.20
2019-01-20T04:47:53.386Z,7.15
2019-01-20T04:50:23.702Z,6.70
2019-01-20T04:52:53.469Z,6.22
2019-01-20T04:55:22.928Z,7.03
2019-01-20T04:57:53.700Z,6.83
2019-01-20T05:00:24.806Z,6.40
2019-01-20T05:02:54.179Z,7.33
2019-01-20T05:05:23.797Z,7.08
2019-01-20T05:07:53.088Z,6.45
2019-01-20T05:10:22.454Z,6.65
2019-01-20T05:12:51.738Z,6.50
2019-01-20T05:15:22.767Z,7.03
2019-01-20T05:17:52.042Z,6.83
2019-01-20T05:20:21.334Z,6.90
2019-01-20T05:22:50.614Z,6.95
2019-01-20T05:25:19.914Z,7.05
2019-01-20T05:27:49.211Z,6.65
2019-01-20T05:30:20.545Z,7.37
2019-01-20T05:32:50.162Z,7.35
2019-01-20T05:35:19.673Z,6.37
2019-01-20T05:37:49.279Z,6.40
2019-01-20T05:40:20.124Z,7.30
2019-01-20T05:42:49.394Z,6.60
2019-01-20T05:45:21.002Z,7.40
2019-01-20T05:47:50.294Z,7.28
2019-01-20T05:50:19.662Z,7.37
2019-01-20T05:52:48.937Z,7.12
2019-01-20T05:55:18.482Z,7.00
2019-01-20T05:57:48.082Z,7.47
2019-01-20T06:00:20.358Z,7.65
2019-01-20T06:02:49.743Z,14.23
2019-01-20T06:05:19.027Z,13.70
2019-01-20T06:07:48.326Z,13.25
2019-01-20T06:10:17.912Z,12.30
2019-01-20T06:12:53.896Z,9.10
2019-01-20T06:15:20.009Z,7.92
2019-01-20T06:17:49.290Z,7.20
2019-01-20T06:20:18.918Z,7.85
2019-01-20T06:22:48.191Z,8.15
2019-01-20T06:25:17.582Z,8.50
2019-01-20T06:27:46.851Z,7.97
2019-01-20T06:30:18.957Z,6.40
2019-01-20T06:32:48.304Z,7.42
2019-01-20T06:35:17.595Z,7.60
2019-01-20T06:37:46.884Z,8.18
2019-01-20T06:40:16.170Z,7.70
2019-01-20T06:42:45.445Z,6.90
2019-01-20T06:45:15.274Z,8.20
2019-01-20T06:47:44.542Z,7.22
2019-01-20T06:50:16.806Z,7.45
2019-01-20T06:52:46.080Z,7.45
2019-01-20T06:55:15.706Z,7.62
2019-01-20T06:57:45.073Z,8.08
2019-01-20T07:00:17.671Z,8.10
2019-01-20T07:02:46.948Z,8.60
2019-01-20T07:05:16.919Z,8.00
2019-01-20T07:07:46.206Z,8.40
2019-01-20T07:10:18.049Z,9.28
2019-01-20T07:12:47.407Z,7.83
2019-01-20T07:15:18.864Z,7.08
2019-01-20T07:17:48.554Z,8.18
2019-01-20T07:20:18.458Z,9.00
2019-01-20T07:22:47.734Z,8.13
2019-01-20T07:25:17.156Z,8.23
2019-01-20T07:27:46.446Z,9.80
2019-01-20T07:30:20.524Z,8.85
2019-01-20T07:32:49.824Z,9.18
2019-01-20T07:35:19.171Z,9.28
2019-01-20T07:37:48.544Z,9.80
2019-01-20T07:40:19.757Z,8.43
2019-01-20T07:42:49.051Z,9.48
2019-01-20T07:45:18.491Z,8.73
2019-01-20T07:47:48.138Z,9.50
2019-01-20T07:50:22.202Z,9.65
2019-01-20T07:52:51.499Z,9.15
2019-01-20T07:55:20.914Z,7.72
2019-01-20T07:57:50.202Z,8.88
2019-01-20T08:00:21.622Z,8.78
2019-01-20T08:02:51.214Z,8.85
2019-01-20T08:05:20.567Z,9.18
2019-01-20T08:07:49.934Z,8.38
2019-01-20T08:10:27.119Z,8.03
2019-01-20T08:12:56.594Z,9.95
2019-01-20T08:15:25.966Z,8.40
2019-01-20T08:17:55.515Z,8.75
2019-01-20T08:20:25.355Z,9.10
2019-01-20T08:22:54.630Z,8.88
2019-01-20T08:25:24.010Z,9.28
2019-01-20T08:27:53.295Z,9.95
2019-01-20T08:30:24.806Z,8.73
2019-01-20T08:32:54.106Z,9.40
2019-01-20T08:35:23.455Z,9.60
2019-01-20T08:37:52.810Z,8.53
2019-01-20T08:40:24.463Z,9.85
2019-01-20T08:42:53.771Z,8.63
2019-01-20T08:45:32.267Z,9.98
2019-01-20T08:48:04.650Z,8.80
2019-01-20T08:50:33.943Z,10.20
2019-01-20T08:53:03.253Z,9.83
2019-01-20T08:55:32.818Z,9.35
2019-01-20T08:58:02.103Z,9.70
2019-01-20T09:00:31.404Z,8.75
2019-01-20T09:03:00.674Z,8.28
2019-01-20T09:05:29.954Z,10.50
2019-01-20T09:07:59.254Z,10.18
2019-01-20T09:10:28.770Z,9.83
2019-01-20T09:12:59.746Z,11.65
2019-01-20T09:15:29.222Z,12.85
2019-01-20T09:17:58.686Z,70.55
2019-01-20T09:20:27.989Z,40.85
2019-01-20T09:22:57.302Z,41.73
2019-01-20T09:25:26.595Z,39.78
2019-01-20T09:27:55.901Z,21.23
2019-01-20T09:30:25.280Z,17.07
2019-01-20T09:32:54.626Z,11.60
2019-01-20T09:35:23.930Z,13.85
2019-01-20T09:37:53.220Z,12.10
2019-01-20T09:40:22.766Z,13.90
2019-01-20T09:42:52.175Z,11.28
2019-01-20T09:45:31.884Z,13.18
2019-01-20T09:48:01.475Z,17.95
2019-01-20T09:50:30.787Z,14.58
2019-01-20T09:53:00.071Z,14.40
2019-01-20T09:55:29.387Z,11.90
2019-01-20T09:57:59.446Z,11.60
2019-01-20T10:00:33.937Z,12.13
2019-01-20T10:03:03.526Z,12.75
2019-01-20T10:05:32.790Z,12.13
2019-01-20T10:08:02.090Z,13.13
2019-01-20T10:10:31.374Z,12.70
2019-01-20T10:13:00.670Z,10.55
2019-01-20T10:15:30.231Z,13.40
2019-01-20T10:17:59.534Z,12.37
2019-01-20T10:20:30.756Z,11.55
2019-01-20T10:23:00.322Z,12.40
2019-01-20T10:25:29.671Z,10.48
2019-01-20T10:27:58.970Z,11.75
2019-01-20T10:30:31.153Z,11.97
2019-01-20T10:33:00.786Z,14.80
2019-01-20T10:35:37.699Z,11.70
2019-01-20T10:38:08.723Z,11.95
2019-01-20T10:40:38.059Z,13.18
2019-01-20T10:43:07.371Z,11.85
2019-01-20T10:45:36.867Z,12.43
2019-01-20T10:48:06.706Z,13.68
2019-01-20T10:50:36.075Z,12.68
2019-01-20T10:53:05.822Z,12.43
2019-01-20T10:55:35.114Z,11.53
2019-01-20T10:58:04.746Z,13.15
2019-01-20T11:01:31.436Z,13.32
2019-01-20T11:04:00.930Z,13.50
2019-01-20T11:06:30.620Z,11.70
2019-01-20T11:09:00.258Z,13.30
2019-01-20T11:11:29.588Z,13.70
2019-01-20T11:13:58.900Z,13.58
2019-01-20T11:16:28.191Z,13.80
2019-01-20T11:18:57.500Z,13.68
2019-01-20T11:21:26.804Z,14.28
2019-01-20T11:23:56.160Z,13.88
2019-01-20T11:26:25.463Z,15.05
2019-01-20T11:28:55.016Z,13.55
2019-01-20T11:31:24.303Z,14.03
2019-01-20T11:33:53.649Z,14.70
2019-01-20T11:36:22.900Z,13.80
2019-01-20T11:38:52.207Z,14.18
2019-01-20T11:41:21.566Z,13.70
2019-01-20T11:43:50.863Z,14.30
2019-01-20T11:46:20.432Z,15.05
2019-01-20T11:48:49.731Z,13.35
2019-01-20T11:51:19.014Z,14.28
2019-01-20T11:53:48.327Z,81.10
2019-01-20T11:56:17.611Z,15.15
2019-01-20T11:58:46.914Z,14.35
2019-01-20T12:01:16.195Z,14.75
2019-01-20T12:03:45.496Z,15.78
2019-01-20T12:06:14.778Z,15.18
2019-01-20T12:08:44.093Z,14.78
2019-01-20T12:11:13.371Z,15.60
2019-01-20T12:13:42.670Z,14.85
2019-01-20T12:16:13.692Z,14.33
2019-01-20T12:18:42.999Z,14.47
2019-01-20T12:21:12.292Z,13.20
2019-01-20T12:23:41.882Z,15.15
2019-01-20T12:26:11.419Z,14.80
2019-01-20T12:28:40.720Z,14.73
2019-01-20T12:31:10.304Z,14.25
2019-01-20T12:33:39.909Z,14.13
2019-01-20T12:36:09.205Z,14.45
2019-01-20T12:38:38.819Z,14.43
2019-01-20T12:41:08.129Z,15.00
2019-01-20T12:43:37.420Z,16.10
2019-01-20T12:46:06.952Z,15.10
2019-01-20T12:48:36.246Z,16.15
2019-01-20T12:54:53.131Z,15.00
2019-01-20T12:57:22.434Z,15.72
2019-01-20T12:59:51.722Z,15.18
2019-01-20T13:02:21.036Z,13.98
2019-01-20T13:04:50.409Z,15.68
2019-01-20T13:07:19.713Z,16.00
2019-01-20T13:09:49.268Z,15.60
2019-01-20T13:12:18.575Z,16.37
2019-01-20T13:14:47.859Z,16.75
2019-01-20T13:17:17.154Z,15.25
2019-01-20T13:19:46.447Z,14.15
2019-01-20T13:22:15.747Z,16.37
2019-01-20T13:24:45.030Z,14.68
2019-01-20T13:27:14.339Z,15.60
2019-01-20T13:29:43.632Z,16.48
2019-01-20T13:32:13.181Z,15.23
2019-01-20T13:34:42.782Z,15.70
2019-01-20T13:37:12.087Z,15.00
2019-01-20T13:39:41.631Z,14.83
2019-01-20T13:42:10.920Z,15.78
2019-01-20T13:44:46.151Z,14.68
2019-01-20T13:47:11.851Z,16.62
2019-01-20T13:49:41.137Z,15.55
2019-01-20T13:52:10.450Z,15.10
2019-01-20T13:54:39.734Z,14.63
2019-01-20T13:57:09.047Z,32.28
2019-01-20T13:59:38.334Z,38.92
2019-01-20T14:02:07.639Z,18.50
2019-01-20T14:04:37.162Z,14.93
2019-01-20T14:07:06.695Z,15.15
2019-01-20T14:09:35.999Z,15.72
2019-01-20T14:12:05.423Z,15.72
2019-01-20T14:14:34.714Z,16.45
2019-01-20T14:17:04.095Z,16.20
2019-01-20T14:19:33.378Z,15.10
2019-01-20T14:22:02.683Z,15.03
2019-01-20T14:24:31.995Z,15.48
2019-01-20T14:27:01.279Z,16.02
2019-01-20T14:29:30.583Z,16.62
2019-01-20T14:31:59.951Z,15.55
2019-01-20T14:34:29.256Z,15.70
2019-01-20T14:36:58.559Z,15.10
2019-01-20T14:39:28.192Z,15.70
2019-01-20T14:41:57.495Z,16.27
2019-01-20T14:44:26.784Z,14.73
2019-01-20T14:46:56.084Z,17.35
2019-01-20T14:49:25.366Z,14.60
2019-01-20T14:51:54.739Z,14.43
2019-01-20T14:54:24.023Z,16.00
2019-01-20T14:56:53.322Z,15.23
2019-01-20T14:59:22.630Z,16.97
2019-01-20T15:01:51.916Z,15.10
2019-01-20T15:04:21.464Z,14.30
2019-01-20T15:06:50.734Z,15.45
2019-01-20T15:09:20.041Z,15.45
2019-01-20T15:11:49.347Z,16.80
2019-01-20T15:14:18.651Z,16.12
2019-01-20T15:16:48.260Z,17.37
2019-01-20T15:19:17.820Z,15.80
2019-01-20T15:21:47.116Z,15.58
2019-01-20T15:24:16.406Z,15.08
2019-01-20T15:26:45.682Z,40.10
2019-01-20T15:29:14.987Z,21.93
2019-01-20T15:31:44.275Z,19.15
2019-01-20T15:34:13.846Z,18.70
2019-01-20T15:36:43.135Z,17.00
2019-01-20T15:39:12.438Z,16.15
2019-01-20T15:41:41.992Z,15.50
2019-01-20T15:44:11.294Z,16.20
2019-01-20T15:46:40.683Z,15.65
2019-01-20T15:49:10.250Z,16.70
2019-01-20T15:51:39.568Z,19.82
2019-01-20T15:54:08.838Z,15.53
2019-01-20T15:56:38.156Z,17.98
2019-01-20T15:59:07.451Z,18.70
2019-01-20T16:01:36.793Z,20.52
2019-01-20T16:04:07.648Z,44.70
2019-01-20T16:06:36.970Z,36.77
2019-01-20T16:09:07.825Z,36.20
2019-01-20T16:11:37.217Z,28.98
2019-01-20T16:14:06.510Z,21.87
2019-01-20T16:16:36.034Z,22.58
2019-01-20T16:19:05.654Z,21.30
2019-01-20T16:21:34.953Z,19.42
2019-01-20T16:24:04.318Z,17.42
2019-01-20T16:26:33.859Z,15.98
2019-01-20T16:29:03.157Z,16.67
2019-01-20T16:31:32.440Z,18.35
2019-01-20T16:34:01.735Z,16.35
2019-01-20T16:36:31.009Z,17.55
2019-01-20T16:39:00.316Z,15.60
2019-01-20T16:41:29.693Z,18.75
2019-01-20T16:44:01.941Z,24.32
2019-01-20T16:46:31.545Z,27.00
2019-01-20T16:49:01.143Z,28.45
2019-01-20T16:51:30.422Z,27.85
2019-01-20T16:53:59.734Z,25.27
2019-01-20T16:56:29.019Z,27.60
2019-01-20T16:58:58.327Z,26.00
2019-01-20T17:01:27.854Z,22.32
2019-01-20T17:03:57.161Z,20.37
2019-01-20T17:06:26.448Z,22.87
2019-01-20T17:08:55.752Z,19.40
2019-01-20T17:11:25.046Z,23.02
2019-01-20T17:13:54.663Z,21.05
2019-01-20T17:16:23.958Z,17.25
2019-01-20T17:18:53.275Z,18.30
2019-01-20T17:21:22.591Z,17.85
2019-01-20T17:23:51.878Z,14.47
2019-01-20T17:26:21.178Z,16.62
2019-01-20T17:28:50.494Z,16.57
2019-01-20T17:31:19.791Z,17.23
2019-01-20T17:33:49.100Z,15.75
2019-01-20T17:36:18.403Z,16.35
2019-01-20T17:38:47.698Z,16.90
2019-01-20T17:41:17.002Z,18.70
2019-01-20T17:43:46.290Z,18.73
2019-01-20T17:46:15.611Z,18.85
2019-01-20T17:48:44.899Z,21.35
2019-01-20T17:51:14.206Z,44.55
2019-01-20T17:53:43.783Z,33.55
2019-01-20T17:56:13.094Z,27.42
2019-01-20T17:58:42.390Z,22.95
2019-01-20T18:01:11.673Z,19.07
2019-01-20T18:03:41.022Z,16.42
2019-01-20T18:06:10.464Z,15.93
2019-01-20T18:08:39.760Z,19.52
2019-01-20T18:11:09.066Z,18.85
2019-01-20T18:13:38.704Z,19.32
2019-01-20T18:16:08.016Z,17.55
2019-01-20T18:18:37.328Z,18.40
2019-01-20T18:21:06.683Z,19.82
2019-01-20T18:23:35.984Z,18.20
2019-01-20T18:26:05.511Z,21.87
2019-01-20T18:28:34.831Z,19.27
2019-01-20T18:31:04.190Z,23.85
2019-01-20T18:33:33.495Z,29.32
2019-01-20T18:36:02.807Z,28.07
2019-01-20T18:38:32.145Z,30.80
2019-01-20T18:41:01.446Z,30.15
2019-01-20T18:43:30.747Z,26.20
2019-01-20T18:46:01.879Z,34.00
2019-01-20T18:48:31.049Z,28.25
2019-01-20T18:51:00.363Z,26.90
2019-01-20T18:53:29.654Z,28.38
2019-01-20T18:55:59.275Z,24.92
2019-01-20T18:58:28.879Z,27.05
2019-01-20T19:00:58.191Z,25.88
2019-01-20T19:03:27.478Z,28.47
2019-01-20T19:05:56.784Z,33.98
2019-01-20T19:08:26.090Z,35.88
2019-01-20T19:10:55.399Z,31.05
2019-01-20T19:13:25.119Z,34.00
2019-01-20T19:15:54.416Z,32.03
2019-01-20T19:18:23.722Z,30.90
2019-01-20T19:20:53.243Z,27.45
2019-01-20T19:23:22.623Z,29.65
2019-01-20T19:32:39.593Z,24.77
2019-01-20T19:35:09.535Z,25.17
2019-01-20T19:41:15.082Z,26.25
2019-01-20T19:43:44.442Z,20.97
2019-01-20T19:46:16.428Z,21.30
2019-01-20T19:48:48.803Z,23.00
2019-01-20T19:55:22.220Z,20.65
2019-01-20T19:57:51.503Z,21.95
2019-01-20T20:00:22.750Z,21.90
2019-01-20T20:02:52.052Z,23.05
2019-01-20T20:05:22.420Z,23.18
2019-01-20T20:07:53.051Z,24.40
2019-01-20T20:10:24.403Z,20.70
2019-01-20T20:12:54.879Z,21.15
2019-01-20T20:19:01.445Z,24.23
2019-01-20T20:21:30.828Z,23.85
2019-01-20T20:24:00.144Z,24.72
2019-01-20T20:26:29.528Z,22.50
2019-01-20T20:28:58.824Z,22.15
2019-01-20T20:31:28.140Z,24.47
2019-01-20T20:33:57.707Z,23.07
2019-01-20T20:36:27.256Z,22.65
2019-01-20T20:38:56.558Z,27.77
2019-01-20T20:41:25.885Z,23.32
2019-01-20T20:43:55.528Z,25.88
2019-01-20T20:46:30.555Z,24.25
2019-01-20T20:48:55.879Z,22.48
2019-01-20T20:51:25.198Z,21.27
2019-01-20T20:53:54.490Z,21.93
2019-01-20T20:56:23.799Z,21.12
2019-01-20T20:58:53.386Z,20.92
2019-01-20T21:01:22.985Z,19.27
2019-01-20T21:03:52.443Z,20.10
2019-01-20T21:06:22.100Z,19.40
2019-01-20T21:08:51.404Z,17.48
2019-01-20T21:11:20.721Z,17.50
2019-01-20T21:13:50.115Z,18.20
2019-01-20T21:16:19.778Z,18.30
2019-01-20T21:18:49.078Z,15.60
2019-01-20T21:21:18.436Z,18.30
2019-01-20T21:23:48.759Z,18.22
2019-01-20T21:26:18.128Z,17.75
2019-01-20T21:28:47.431Z,18.25
2019-01-20T21:31:17.053Z,18.75
2019-01-20T21:33:46.348Z,17.70
2019-01-20T21:36:15.657Z,15.38
2019-01-20T21:38:44.952Z,17.02
2019-01-20T21:41:14.271Z,17.77
2019-01-20T21:43:43.555Z,17.17
2019-01-20T21:46:12.947Z,18.62
2019-01-20T21:48:42.249Z,20.30
2019-01-20T21:51:11.538Z,20.25
2019-01-20T21:53:41.168Z,21.50
2019-01-20T21:56:10.429Z,24.77
2019-01-20T21:58:40.076Z,21.82
2019-01-20T22:01:09.365Z,21.57
2019-01-20T22:03:38.680Z,19.67
2019-01-20T22:06:07.976Z,18.52
2019-01-20T22:08:37.304Z,18.60
2019-01-20T22:11:06.600Z,18.27
2019-01-20T22:13:35.907Z,19.05
2019-01-20T22:16:05.215Z,18.90
2019-01-20T22:18:34.790Z,17.25
2019-01-20T22:21:04.091Z,15.93
2019-01-20T22:23:33.375Z,16.52
2019-01-20T22:26:02.786Z,15.88
2019-01-20T22:28:32.072Z,17.23
2019-01-20T22:31:01.371Z,17.15
2019-01-20T22:33:30.684Z,16.05
2019-01-20T22:35:59.975Z,15.63
2019-01-20T22:38:29.283Z,16.20
2019-01-20T22:40:58.899Z,15.83
2019-01-20T22:43:28.215Z,17.23
2019-01-20T22:45:57.504Z,17.40
2019-01-20T22:48:27.108Z,16.23
2019-01-20T22:50:56.425Z,15.45
2019-01-20T22:53:25.737Z,15.83
2019-01-20T22:55:55.031Z,15.72
2019-01-20T22:58:24.338Z,15.32
2019-01-20T23:00:54.840Z,14.87
2019-01-20T23:03:24.156Z,15.55
2019-01-20T23:05:53.536Z,15.58
2019-01-20T23:08:22.933Z,14.30
2019-01-20T23:10:52.283Z,15.88
2019-01-20T23:13:21.575Z,16.12
2019-01-20T23:15:51.147Z,16.20
2019-01-20T23:18:20.466Z,16.25
2019-01-20T23:20:50.155Z,17.40
2019-01-20T23:23:19.459Z,15.35
2019-01-20T23:25:49.139Z,14.45
2019-01-20T23:28:18.690Z,14.65
2019-01-20T23:30:48.004Z,14.80
2019-01-20T23:33:17.528Z,13.93
2019-01-20T23:35:46.834Z,14.35
2019-01-20T23:38:16.155Z,15.28
2019-01-20T23:40:45.463Z,14.65
2019-01-20T23:43:14.764Z,13.88
2019-01-20T23:45:44.128Z,14.98
2019-01-20T23:48:13.713Z,15.75
2019-01-20T23:50:43.015Z,15.23
2019-01-20T23:53:12.316Z,15.32
2019-01-20T23:55:41.614Z,14.43
2019-01-20T23:58:10.948Z,14.15
